createdAt,value
2022-09-01T00:01:50.092Z,16.20
2022-09-01T00:04:25.801Z,16.20
2022-09-01T00:06:55.043Z,16.20
2022-09-01T00:09:23.381Z,16.20
2022-09-01T00:11:54.429Z,16.20
2022-09-01T00:14:29.996Z,16.20
2022-09-01T00:17:00.958Z,16.20
2022-09-01T00:19:29.538Z,16.20
2022-09-01T00:21:57.093Z,16.30
2022-09-01T00:24:26.189Z,16.40
2022-09-01T00:26:55.161Z,16.30
2022-09-01T00:29:24.010Z,16.30
2022-09-01T00:31:51.644Z,16.20
2022-09-01T00:34:20.098Z,16.10
2022-09-01T00:36:48.139Z,16.10
2022-09-01T00:39:15.759Z,16.00
2022-09-01T00:41:44.806Z,16.00
2022-09-01T00:44:15.869Z,15.90
2022-09-01T00:46:51.018Z,15.80
2022-09-01T00:49:31.631Z,15.80
2022-09-01T00:52:08.154Z,15.80
2022-09-01T00:54:44.639Z,15.80
2022-09-01T00:57:13.115Z,15.90
2022-09-01T00:59:49.703Z,16.10
2022-09-01T01:02:16.939Z,16.20
2022-09-01T01:04:46.209Z,16.30
2022-09-01T01:07:14.002Z,16.40
2022-09-01T01:09:44.821Z,16.40
2022-09-01T01:12:13.906Z,16.30
2022-09-01T01:14:41.640Z,16.30
2022-09-01T01:17:13.185Z,16.20
2022-09-01T01:20:03.565Z,16.10
2022-09-01T01:23:09.071Z,16.10
2022-09-01T01:25:44.557Z,16.00
2022-09-01T01:28:15.782Z,15.90
2022-09-01T01:30:51.020Z,15.90
2022-09-01T01:33:31.580Z,15.80
2022-09-01T01:35:59.856Z,15.70
2022-09-01T01:38:30.065Z,15.60
2022-09-01T01:40:57.562Z,15.50
2022-09-01T01:43:26.343Z,15.40
2022-09-01T01:45:59.114Z,15.40
2022-09-01T01:48:34.471Z,15.20
2022-09-01T01:51:02.769Z,15.20
2022-09-01T01:53:30.777Z,15.30
2022-09-01T01:55:59.975Z,15.30
2022-09-01T01:58:31.331Z,15.40
2022-09-01T02:00:59.033Z,15.40
2022-09-01T02:03:32.715Z,15.40
2022-09-01T02:06:04.703Z,15.40
2022-09-01T02:08:34.102Z,15.40
2022-09-01T02:11:01.786Z,15.40
2022-09-01T02:13:32.897Z,15.40
2022-09-01T02:16:03.731Z,15.30
2022-09-01T02:18:37.101Z,15.20
2022-09-01T02:21:12.769Z,15.20
2022-09-01T02:23:42.433Z,15.20
2022-09-01T02:26:16.631Z,15.20
2022-09-01T02:28:50.945Z,15.10
2022-09-01T02:31:22.891Z,15.00
2022-09-01T02:33:50.639Z,14.90
2022-09-01T02:36:19.558Z,14.80
2022-09-01T02:38:53.348Z,14.70
2022-09-01T02:41:23.596Z,14.60
2022-09-01T02:43:51.117Z,14.50
2022-09-01T02:46:21.432Z,14.50
2022-09-01T02:48:51.324Z,14.50
2022-09-01T02:51:20.922Z,14.50
2022-09-01T02:53:52.951Z,14.40
2022-09-01T02:56:24.992Z,14.40
2022-09-01T02:58:53.349Z,14.40
2022-09-01T03:01:31.995Z,14.30
2022-09-01T03:04:03.146Z,14.20
2022-09-01T03:06:33.958Z,14.10
2022-09-01T03:09:04.232Z,14.00
2022-09-01T03:11:34.898Z,14.00
2022-09-01T03:14:02.974Z,14.00
2022-09-01T03:16:33.269Z,14.00
2022-09-01T03:19:03.254Z,13.90
2022-09-01T03:21:32.173Z,13.90
2022-09-01T03:24:01.917Z,13.90
2022-09-01T03:26:30.093Z,13.90
2022-09-01T03:28:59.053Z,13.80
2022-09-01T03:31:27.634Z,13.80
2022-09-01T03:34:00.532Z,13.80
2022-09-01T03:36:33.210Z,13.80
2022-09-01T03:39:01.175Z,13.90
2022-09-01T03:41:30.885Z,14.00
2022-09-01T03:43:59.423Z,14.10
2022-09-01T03:46:36.964Z,14.10
2022-09-01T03:49:07.853Z,14.10
2022-09-01T03:51:38.805Z,14.20
2022-09-01T03:54:06.837Z,14.20
2022-09-01T03:56:34.081Z,14.20
2022-09-01T03:59:01.467Z,14.10
2022-09-01T04:01:41.474Z,14.10
2022-09-01T04:04:13.713Z,14.10
2022-09-01T04:06:43.342Z,14.10
2022-09-01T04:09:11.285Z,14.10
2022-09-01T04:11:45.788Z,14.10
2022-09-01T04:14:15.308Z,14.10
2022-09-01T04:17:02.893Z,14.10
2022-09-01T04:19:36.478Z,14.10
2022-09-01T04:22:05.061Z,14.10
2022-09-01T04:24:45.366Z,14.10
2022-09-01T04:27:14.418Z,14.10
2022-09-01T04:29:42.694Z,14.10
2022-09-01T04:32:12.864Z,14.10
2022-09-01T04:34:42.736Z,14.10
2022-09-01T04:37:15.459Z,14.10
2022-09-01T04:39:55.675Z,14.10
2022-09-01T04:42:27.283Z,14.10
2022-09-01T04:44:57.225Z,14.20
2022-09-01T04:47:35.425Z,14.20
2022-09-01T04:50:13.510Z,14.20
2022-09-01T04:52:42.220Z,14.20
2022-09-01T04:55:18.488Z,14.20
2022-09-01T04:57:49.978Z,14.30
2022-09-01T05:00:23.406Z,14.30
2022-09-01T05:02:53.252Z,14.30
2022-09-01T05:05:22.670Z,14.20
2022-09-01T05:07:54.465Z,14.10
2022-09-01T05:10:23.090Z,14.00
2022-09-01T05:13:17.475Z,13.90
2022-09-01T05:15:46.949Z,13.90
2022-09-01T05:18:28.039Z,14.00
2022-09-01T05:20:57.430Z,14.00
2022-09-01T05:23:26.590Z,14.00
2022-09-01T05:25:54.780Z,14.00
2022-09-01T05:28:25.220Z,14.20
2022-09-01T05:30:54.179Z,14.20
2022-09-01T05:33:22.147Z,14.20
2022-09-01T05:35:56.837Z,14.30
2022-09-01T05:38:25.526Z,14.50
2022-09-01T05:40:59.066Z,14.80
2022-09-01T05:43:27.733Z,15.20
2022-09-01T05:46:06.714Z,15.60
2022-09-01T05:48:40.117Z,16.00
2022-09-01T05:51:27.474Z,16.50
2022-09-01T05:53:59.142Z,16.70
2022-09-01T05:56:29.750Z,17.00
2022-09-01T06:01:50.524Z,17.40
2022-09-01T06:04:18.337Z,17.60
2022-09-01T06:07:05.835Z,17.90
2022-09-01T06:09:33.739Z,18.10
2022-09-01T06:12:01.841Z,18.20
2022-09-01T06:14:29.243Z,18.40
2022-09-01T06:16:56.552Z,18.50
2022-09-01T06:19:23.886Z,18.60
2022-09-01T06:21:52.006Z,18.50
2022-09-01T06:24:19.692Z,18.20
2022-09-01T06:26:47.349Z,17.80
2022-09-01T06:29:15.455Z,17.30
2022-09-01T06:31:52.794Z,16.90
2022-09-01T06:34:20.955Z,16.70
2022-09-01T06:36:51.578Z,16.60
2022-09-01T06:39:19.791Z,16.40
2022-09-01T06:41:52.979Z,16.40
2022-09-01T06:44:24.847Z,16.30
2022-09-01T06:47:02.194Z,16.40
2022-09-01T06:49:33.052Z,16.40
2022-09-01T06:52:02.717Z,16.40
2022-09-01T06:54:33.966Z,16.40
2022-09-01T06:58:03.420Z,16.50
2022-09-01T06:59:52.424Z,16.60
2022-09-01T07:08:19.835Z,17.00
2022-09-01T07:12:08.891Z,17.00
2022-09-01T07:16:52.008Z,17.30
2022-09-01T07:19:21.612Z,17.30
2022-09-01T07:22:35.273Z,17.50
2022-09-01T07:24:47.089Z,17.60
2022-09-01T07:27:51.109Z,17.70
2022-09-01T07:30:23.999Z,17.80
2022-09-01T07:32:52.952Z,18.00
2022-09-01T07:35:22.427Z,18.10
2022-09-01T07:42:59.098Z,16.70
2022-09-01T07:43:51.044Z,18.40
2022-09-01T07:46:37.523Z,18.50
2022-09-01T07:51:59.619Z,18.60
2022-09-01T07:54:27.469Z,18.60
2022-09-01T07:56:55.444Z,18.60
2022-09-01T07:59:23.641Z,18.70
2022-09-01T08:01:57.880Z,18.80
2022-09-01T08:04:26.555Z,18.80
2022-09-01T08:06:55.782Z,18.80
2022-09-01T08:09:35.141Z,18.90
2022-09-01T08:12:08.194Z,18.90
2022-09-01T08:14:40.815Z,19.00
2022-09-01T08:19:58.374Z,19.20
2022-09-01T08:22:44.336Z,19.30
2022-09-01T08:25:25.101Z,19.50
2022-09-01T08:28:00.484Z,19.50
2022-09-01T08:30:28.395Z,19.60
2022-09-01T08:32:55.942Z,19.60
2022-09-01T08:35:24.143Z,19.60
2022-09-01T08:37:54.143Z,19.60
2022-09-01T08:40:23.799Z,19.60
2022-09-01T08:43:01.461Z,19.70
2022-09-01T08:45:38.150Z,19.80
2022-09-01T08:51:26.191Z,20.10
2022-09-01T08:54:34.355Z,20.20
2022-09-01T08:57:08.605Z,20.40
2022-09-01T08:59:54.545Z,20.40
2022-09-01T09:02:46.035Z,20.60
2022-09-01T09:05:38.368Z,20.80
2022-09-01T09:08:17.082Z,21.30
2022-09-01T09:10:50.801Z,22.70
2022-09-01T09:13:42.391Z,24.20
2022-09-01T09:16:16.432Z,25.10
2022-09-01T09:18:56.451Z,26.20
2022-09-01T09:21:33.810Z,27.00
2022-09-01T09:24:10.169Z,27.20
2022-09-01T09:26:44.904Z,27.60
2022-09-01T09:29:12.315Z,27.40
2022-09-01T09:31:46.048Z,27.20
2022-09-01T09:34:18.765Z,27.80
2022-09-01T09:36:53.887Z,28.30
2022-09-01T09:39:23.182Z,28.90
2022-09-01T09:42:09.342Z,29.20
2022-09-01T09:44:44.090Z,29.80
2022-09-01T09:47:43.764Z,30.20
2022-09-01T09:50:21.075Z,29.70
2022-09-01T09:52:49.207Z,29.50
2022-09-01T09:55:29.096Z,30.00
2022-09-01T09:58:01.943Z,29.50
2022-09-01T10:00:33.921Z,29.30
2022-09-01T10:03:08.887Z,28.70
2022-09-01T10:05:44.032Z,29.30
2022-09-01T10:08:47.976Z,29.20
2022-09-01T10:11:40.829Z,28.90
2022-09-01T10:14:35.329Z,29.10
2022-09-01T10:17:15.898Z,29.20
2022-09-01T10:20:06.447Z,29.10
2022-09-01T10:22:36.947Z,29.10
2022-09-01T10:25:07.099Z,28.70
2022-09-01T10:27:41.525Z,29.30
2022-09-01T10:30:18.145Z,28.60
2022-09-01T10:32:54.951Z,28.80
2022-09-01T10:35:34.348Z,29.40
2022-09-01T10:38:08.053Z,29.80
2022-09-01T10:40:50.078Z,30.70
2022-09-01T10:43:38.037Z,31.40
2022-09-01T10:46:24.415Z,31.90
2022-09-01T10:49:03.111Z,31.80
2022-09-01T10:51:36.396Z,31.60
2022-09-01T10:54:06.643Z,31.80
2022-09-01T10:56:53.321Z,31.10
2022-09-01T10:59:33.800Z,30.90
2022-09-01T11:02:28.762Z,31.50
2022-09-01T11:04:58.773Z,31.90
2022-09-01T11:07:50.737Z,31.50
2022-09-01T11:11:11.206Z,31.90
2022-09-01T11:13:46.395Z,32.70
2022-09-01T11:16:46.774Z,33.30
2022-09-01T11:19:37.482Z,33.40
2022-09-01T11:22:32.615Z,33.10
2022-09-01T11:25:39.843Z,32.90
2022-09-01T11:28:17.833Z,33.20
2022-09-01T11:30:53.413Z,33.20
2022-09-01T11:33:58.602Z,33.60
2022-09-01T11:36:47.295Z,34.00
2022-09-01T11:39:19.152Z,34.20
2022-09-01T11:41:59.630Z,33.60
2022-09-01T11:44:42.628Z,32.90
2022-09-01T11:47:19.043Z,33.70
2022-09-01T11:49:59.750Z,35.00
2022-09-01T11:52:34.181Z,35.30
2022-09-01T11:55:03.043Z,34.80
2022-09-01T11:57:33.700Z,34.50
2022-09-01T12:00:05.380Z,33.20
2022-09-01T12:02:45.406Z,32.10
2022-09-01T12:05:31.671Z,31.20
2022-09-01T12:08:01.569Z,30.80
2022-09-01T12:10:39.059Z,30.50
2022-09-01T12:13:10.479Z,30.70
2022-09-01T12:16:00.458Z,30.70
2022-09-01T12:18:32.881Z,30.50
2022-09-01T12:21:02.146Z,29.90
2022-09-01T12:23:35.813Z,29.30
2022-09-01T12:26:15.520Z,28.30
2022-09-01T12:28:52.971Z,28.60
2022-09-01T12:31:23.666Z,29.60
2022-09-01T12:33:52.813Z,30.30
2022-09-01T12:36:20.288Z,30.60
2022-09-01T12:38:48.201Z,30.40
2022-09-01T12:41:31.173Z,30.50
2022-09-01T12:44:32.516Z,30.60
2022-09-01T12:47:06.869Z,32.20
2022-09-01T12:49:48.025Z,34.50
2022-09-01T12:52:19.927Z,35.30
2022-09-01T12:54:50.143Z,35.10
2022-09-01T12:57:49.727Z,33.90
2022-09-01T13:00:20.246Z,33.80
2022-09-01T13:03:14.544Z,33.70
2022-09-01T13:05:47.100Z,32.90
2022-09-01T13:08:18.335Z,33.40
2022-09-01T13:10:52.959Z,34.00
2022-09-01T13:13:21.916Z,34.60
2022-09-01T13:15:53.104Z,35.30
2022-09-01T13:18:22.960Z,35.90
2022-09-01T13:20:51.678Z,36.70
2022-09-01T13:23:19.998Z,37.10
2022-09-01T13:25:47.723Z,36.60
2022-09-01T13:28:16.411Z,36.90
2022-09-01T13:30:46.973Z,37.30
2022-09-01T13:33:23.145Z,37.50
2022-09-01T13:35:51.798Z,37.80
2022-09-01T13:38:20.120Z,38.30
2022-09-01T13:40:49.185Z,38.30
2022-09-01T13:43:19.560Z,38.30
2022-09-01T13:45:47.374Z,38.30
2022-09-01T13:48:16.494Z,37.90
2022-09-01T13:53:34.090Z,37.50
2022-09-01T13:56:02.550Z,37.30
2022-09-01T13:58:29.930Z,36.90
2022-09-01T14:00:59.957Z,36.50
2022-09-01T14:03:27.422Z,36.50
2022-09-01T14:05:55.005Z,37.10
2022-09-01T14:08:22.870Z,37.50
2022-09-01T14:10:53.032Z,37.30
2022-09-01T14:13:22.510Z,36.10
2022-09-01T14:15:50.542Z,36.10
2022-09-01T14:18:17.955Z,36.20
2022-09-01T14:20:47.622Z,36.40
2022-09-01T14:23:15.544Z,36.90
2022-09-01T14:25:46.268Z,37.00
2022-09-01T14:28:14.217Z,37.40
2022-09-01T14:30:43.862Z,37.70
2022-09-01T14:33:11.808Z,36.40
2022-09-01T14:35:41.738Z,35.90
2022-09-01T14:38:09.775Z,35.90
2022-09-01T14:40:38.747Z,36.50
2022-09-01T14:43:09.764Z,36.90
2022-09-01T14:45:37.743Z,37.00
2022-09-01T14:48:05.720Z,36.20
2022-09-01T14:50:33.383Z,35.80
2022-09-01T14:53:02.762Z,35.90
2022-09-01T14:55:30.963Z,36.10
2022-09-01T14:57:59.728Z,35.80
2022-09-01T15:00:27.866Z,35.80
2022-09-01T15:02:55.715Z,34.90
2022-09-01T15:05:24.085Z,34.60
2022-09-01T15:07:51.927Z,34.50
2022-09-01T15:10:25.095Z,34.60
2022-09-01T15:12:58.613Z,34.70
2022-09-01T15:15:27.550Z,34.40
2022-09-01T15:17:56.003Z,34.20
2022-09-01T15:20:43.001Z,34.40
2022-09-01T15:23:11.355Z,34.30
2022-09-01T15:25:38.768Z,33.60
2022-09-01T15:28:06.019Z,33.50
2022-09-01T15:30:33.782Z,33.60
2022-09-01T15:33:02.042Z,33.70
2022-09-01T15:35:30.583Z,33.90
2022-09-01T15:37:58.194Z,34.20
2022-09-01T15:40:26.251Z,34.00
2022-09-01T15:42:54.892Z,33.70
2022-09-01T15:45:23.894Z,33.00
2022-09-01T15:47:51.396Z,32.90
2022-09-01T15:50:22.085Z,32.60
2022-09-01T15:52:56.213Z,32.10
2022-09-01T15:55:45.990Z,31.30
2022-09-01T15:58:15.902Z,30.60
2022-09-01T16:00:44.322Z,30.20
2022-09-01T16:03:11.541Z,30.30
2022-09-01T16:05:40.938Z,30.30
2022-09-01T16:08:09.708Z,29.80
2022-09-01T16:10:39.873Z,29.10
2022-09-01T16:13:07.740Z,28.50
2022-09-01T16:15:35.227Z,28.00
2022-09-01T16:18:25.406Z,27.50
2022-09-01T16:21:12.093Z,27.10
2022-09-01T16:23:51.337Z,26.80
2022-09-01T16:26:21.351Z,26.70
2022-09-01T16:28:51.912Z,26.60
2022-09-01T16:31:28.242Z,26.30
2022-09-01T16:33:58.788Z,26.30
2022-09-01T16:36:25.967Z,26.30
2022-09-01T16:39:21.907Z,26.30
2022-09-01T16:42:02.539Z,26.30
2022-09-01T16:44:38.491Z,26.30
2022-09-01T16:47:25.436Z,26.20
2022-09-01T16:50:03.822Z,26.10
2022-09-01T16:53:14.156Z,26.00
2022-09-01T16:56:11.799Z,25.90
2022-09-01T16:58:53.587Z,25.70
2022-09-01T17:01:30.102Z,25.60
2022-09-01T17:04:03.297Z,25.60
2022-09-01T17:07:00.894Z,25.50
2022-09-01T17:09:34.467Z,25.40
2022-09-01T17:12:27.652Z,25.30
2022-09-01T17:14:59.369Z,25.10
2022-09-01T17:17:39.055Z,25.00
2022-09-01T17:20:06.963Z,24.90
2022-09-01T17:22:36.965Z,24.70
2022-09-01T17:25:09.663Z,24.60
2022-09-01T17:27:55.521Z,24.40
2022-09-01T17:30:22.755Z,24.20
2022-09-01T17:33:19.294Z,24.00
2022-09-01T17:35:49.524Z,23.80
2022-09-01T17:38:54.060Z,23.60
2022-09-01T17:41:39.158Z,23.40
2022-09-01T17:44:16.523Z,23.30
2022-09-01T17:47:05.071Z,23.10
2022-09-01T17:49:45.534Z,22.90
2022-09-01T17:52:14.525Z,22.80
2022-09-01T17:55:02.668Z,22.70
2022-09-01T17:58:08.541Z,22.50
2022-09-01T18:00:39.918Z,22.40
2022-09-01T18:03:31.623Z,22.30
2022-09-01T18:05:58.878Z,22.30
2022-09-01T18:08:42.925Z,22.20
2022-09-01T18:11:36.206Z,22.10
2022-09-01T18:14:14.494Z,21.90
2022-09-01T18:17:23.286Z,21.90
2022-09-01T18:20:05.708Z,21.80
2022-09-01T18:22:43.758Z,21.70
2022-09-01T18:25:18.665Z,21.60
2022-09-01T18:27:46.655Z,21.50
2022-09-01T18:30:36.322Z,21.40
2022-09-01T18:33:26.901Z,21.40
2022-09-01T18:36:19.995Z,21.30
2022-09-01T18:38:57.396Z,21.30
2022-09-01T18:41:30.274Z,21.20
2022-09-01T18:44:15.574Z,21.10
2022-09-01T18:47:04.047Z,21.10
2022-09-01T18:49:55.348Z,21.10
2022-09-01T18:52:42.819Z,21.00
2022-09-01T18:55:49.071Z,21.00
2022-09-01T18:58:39.320Z,20.90
2022-09-01T19:01:09.428Z,20.80
2022-09-01T19:03:53.477Z,20.70
2022-09-01T19:06:26.426Z,20.60
2022-09-01T19:09:14.246Z,20.50
2022-09-01T19:11:47.401Z,20.30
2022-09-01T19:17:25.634Z,20.10
2022-09-01T19:20:00.168Z,20.00
2022-09-01T19:22:56.955Z,20.00
2022-09-01T19:25:33.710Z,19.90
2022-09-01T19:28:31.002Z,19.90
2022-09-01T19:31:04.846Z,19.80
2022-09-01T19:33:38.084Z,19.80
2022-09-01T19:36:09.316Z,19.70
2022-09-01T19:38:37.595Z,19.70
2022-09-01T19:41:19.149Z,19.70
2022-09-01T19:43:48.318Z,19.60
2022-09-01T19:46:20.571Z,19.60
2022-09-01T19:49:06.140Z,19.60
2022-09-01T19:51:45.519Z,19.50
2022-09-01T19:54:41.730Z,19.50
2022-09-01T19:57:28.667Z,19.50
2022-09-01T20:00:09.775Z,19.40
2022-09-01T20:02:43.137Z,19.40
2022-09-01T20:05:21.570Z,19.30
2022-09-01T20:07:55.406Z,19.30
2022-09-01T20:10:49.622Z,19.20
2022-09-01T20:13:40.258Z,19.20
2022-09-01T20:16:29.944Z,19.20
2022-09-01T20:19:03.566Z,19.20
2022-09-01T20:21:32.059Z,19.20
2022-09-01T20:24:07.542Z,19.20
2022-09-01T20:26:42.011Z,19.20
2022-09-01T20:29:44.740Z,19.20
2022-09-01T20:32:14.661Z,19.10
2022-09-01T20:34:48.452Z,19.10
2022-09-01T20:37:21.981Z,19.00
2022-09-01T20:40:04.522Z,18.90
2022-09-01T20:42:53.057Z,19.00
2022-09-01T20:45:28.374Z,19.00
2022-09-01T20:47:58.406Z,19.00
2022-09-01T20:50:57.923Z,19.00
2022-09-01T20:54:06.551Z,19.00
2022-09-01T20:56:57.194Z,18.90
2022-09-01T20:59:43.177Z,18.90
2022-09-01T21:02:33.048Z,18.80
2022-09-01T21:05:31.208Z,18.70
2022-09-01T21:08:33.028Z,18.70
2022-09-01T21:11:08.587Z,18.70
2022-09-01T21:13:56.010Z,18.70
2022-09-01T21:16:47.358Z,18.70
2022-09-01T21:19:36.574Z,18.70
2022-09-01T21:22:11.261Z,18.70
2022-09-01T21:24:39.499Z,18.70
2022-09-01T21:27:11.410Z,18.70
2022-09-01T21:29:52.457Z,18.70
2022-09-01T21:32:20.596Z,18.60
2022-09-01T21:34:48.700Z,18.60
2022-09-01T21:37:16.891Z,18.50
2022-09-01T21:39:44.130Z,18.50
2022-09-01T21:42:12.451Z,18.50
2022-09-01T21:44:40.782Z,18.60
2022-09-01T21:47:08.247Z,18.60
2022-09-01T21:49:35.752Z,18.60
2022-09-01T21:52:04.011Z,18.60
2022-09-01T21:54:31.518Z,18.60
2022-09-01T21:56:58.748Z,18.50
2022-09-01T21:59:26.852Z,18.40
2022-09-01T22:01:54.368Z,18.30
2022-09-01T22:04:23.073Z,18.30
2022-09-01T22:06:51.415Z,18.20
2022-09-01T22:09:20.543Z,18.10
2022-09-01T22:11:50.843Z,18.10
2022-09-01T22:14:19.985Z,18.00
2022-09-01T22:16:48.273Z,17.90
2022-09-01T22:19:16.265Z,17.80
2022-09-01T22:21:44.300Z,17.70
2022-09-01T22:24:11.631Z,17.60
2022-09-01T22:26:39.059Z,17.70
2022-09-01T22:29:07.350Z,17.60
2022-09-01T22:31:37.573Z,17.50
2022-09-01T22:34:06.862Z,17.50
2022-09-01T22:36:42.079Z,17.50
2022-09-01T22:39:11.574Z,17.50
2022-09-01T22:41:41.046Z,17.50
2022-09-01T22:44:09.800Z,17.60
2022-09-01T22:46:38.802Z,17.50
2022-09-01T22:49:06.585Z,17.50
2022-09-01T22:51:34.227Z,17.50
2022-09-01T22:54:01.400Z,17.50
2022-09-01T22:56:32.083Z,17.50
2022-09-01T22:59:02.421Z,17.70
2022-09-01T23:01:33.139Z,17.70
2022-09-01T23:04:02.089Z,17.70
2022-09-01T23:06:31.042Z,17.80
2022-09-01T23:09:01.373Z,17.80
2022-09-01T23:11:29.107Z,17.70
2022-09-01T23:13:56.523Z,17.70
2022-09-01T23:16:24.954Z,17.70
2022-09-01T23:18:53.944Z,17.70
2022-09-01T23:21:24.958Z,17.80
2022-09-01T23:23:58.605Z,17.70
2022-09-01T23:26:27.655Z,17.70
2022-09-01T23:28:55.898Z,17.70
2022-09-01T23:31:27.729Z,17.70
2022-09-01T23:33:55.531Z,17.80
2022-09-01T23:36:25.641Z,17.80
2022-09-01T23:38:53.541Z,17.90
2022-09-01T23:41:29.284Z,17.90
2022-09-01T23:43:58.682Z,17.90
2022-09-01T23:46:30.497Z,17.90
2022-09-01T23:48:58.331Z,17.90
2022-09-01T23:51:26.792Z,17.90
2022-09-01T23:53:53.999Z,17.90
2022-09-01T23:56:25.213Z,17.90
2022-09-01T23:58:52.931Z,17.90
